Schedule Details


Flight Number: CTN412
Departure: Kastela (LDSP) at 13:00
Arrival: Frankfurt/main (EDDF) at 14:50
Route: ZDA DCT BUSET DCT VEKEN DCT ERKIR UQ863 TEKSI/N0450F300 UQ863 ETASA T163 PSA

Weather Information
LDSP 221630Z 11007KT CAVOK 22/14 Q1017 NOSIG
EDDF 221650Z VRB01KT CAVOK 22/10 Q1009 NOSIG
Schedule Frequency

Route Map